sensor_id;sensor_type;location;lat;lon;timestamp;P1;durP1;ratioP1;P2;durP2;ratioP2
60908;SDS011;46780;48.128;-1.704;2022-12-24T00:02:14;49.88;;;6.75;;
60908;SDS011;46780;48.128;-1.704;2022-12-24T00:04:40;45.58;;;6.25;;
60908;SDS011;46780;48.128;-1.704;2022-12-24T00:07:07;53.53;;;7.22;;
60908;SDS011;46780;48.128;-1.704;2022-12-24T00:09:33;42.65;;;6.05;;
60908;SDS011;46780;48.128;-1.704;2022-12-24T00:12:00;53.33;;;7.00;;
60908;SDS011;46780;48.128;-1.704;2022-12-24T00:14:28;50.13;;;6.88;;
60908;SDS011;46780;48.128;-1.704;2022-12-24T00:16:54;60.05;;;7.68;;
60908;SDS011;46780;48.128;-1.704;2022-12-24T00:19:21;46.60;;;7.28;;
60908;SDS011;46780;48.128;-1.704;2022-12-24T00:21:47;49.35;;;6.57;;
60908;SDS011;46780;48.128;-1.704;2022-12-24T00:24:14;56.30;;;6.88;;
60908;SDS011;46780;48.128;-1.704;2022-12-24T00:26:40;53.53;;;7.15;;
60908;SDS011;46780;48.128;-1.704;2022-12-24T00:29:07;45.53;;;5.93;;
60908;SDS011;46780;48.128;-1.704;2022-12-24T00:31:35;50.17;;;6.60;;
60908;SDS011;46780;48.128;-1.704;2022-12-24T00:34:01;45.70;;;6.80;;
60908;SDS011;46780;48.128;-1.704;2022-12-24T00:36:28;47.85;;;6.18;;
60908;SDS011;46780;48.128;-1.704;2022-12-24T00:38:54;51.83;;;6.82;;
60908;SDS011;46780;48.128;-1.704;2022-12-24T00:41:21;52.90;;;7.72;;
60908;SDS011;46780;48.128;-1.704;2022-12-24T00:43:47;51.97;;;7.38;;
60908;SDS011;46780;48.128;-1.704;2022-12-24T00:46:14;46.40;;;6.45;;
60908;SDS011;46780;48.128;-1.704;2022-12-24T00:48:42;52.28;;;7.03;;
60908;SDS011;46780;48.128;-1.704;2022-12-24T00:51:09;52.95;;;7.35;;
60908;SDS011;46780;48.128;-1.704;2022-12-24T00:53:35;56.50;;;6.93;;
60908;SDS011;46780;48.128;-1.704;2022-12-24T00:56:02;54.47;;;6.55;;
60908;SDS011;46780;48.128;-1.704;2022-12-24T00:58:28;43.25;;;6.13;;
60908;SDS011;46780;48.128;-1.704;2022-12-24T01:00:55;50.15;;;6.00;;
60908;SDS011;46780;48.128;-1.704;2022-12-24T01:03:21;51.38;;;6.72;;
60908;SDS011;46780;48.128;-1.704;2022-12-24T01:05:50;58.10;;;6.70;;
60908;SDS011;46780;48.128;-1.704;2022-12-24T01:08:16;50.65;;;6.63;;
60908;SDS011;46780;48.128;-1.704;2022-12-24T01:10:43;47.92;;;6.68;;
60908;SDS011;46780;48.128;-1.704;2022-12-24T01:13:09;51.42;;;5.80;;
60908;SDS011;46780;48.128;-1.704;2022-12-24T01:15:36;52.67;;;6.18;;
60908;SDS011;46780;48.128;-1.704;2022-12-24T01:18:02;63.95;;;7.22;;
60908;SDS011;46780;48.128;-1.704;2022-12-24T01:20:29;43.05;;;6.05;;
60908;SDS011;46780;48.128;-1.704;2022-12-24T01:22:56;54.60;;;6.68;;
60908;SDS011;46780;48.128;-1.704;2022-12-24T01:25:23;54.63;;;7.05;;
60908;SDS011;46780;48.128;-1.704;2022-12-24T01:27:49;52.85;;;7.63;;
60908;SDS011;46780;48.128;-1.704;2022-12-24T01:30:16;55.38;;;6.60;;
60908;SDS011;46780;48.128;-1.704;2022-12-24T01:32:43;56.55;;;7.30;;
60908;SDS011;46780;48.128;-1.704;2022-12-24T01:35:09;41.00;;;5.70;;
60908;SDS011;46780;48.128;-1.704;2022-12-24T01:37:36;46.58;;;6.35;;
60908;SDS011;46780;48.128;-1.704;2022-12-24T01:40:05;53.13;;;7.03;;
60908;SDS011;46780;48.128;-1.704;2022-12-24T01:42:32;45.63;;;5.93;;
60908;SDS011;46780;48.128;-1.704;2022-12-24T01:48:00;52.13;;;6.45;;
60908;SDS011;46780;48.128;-1.704;2022-12-24T01:50:27;41.85;;;6.00;;
60908;SDS011;46780;48.128;-1.704;2022-12-24T01:52:54;42.55;;;6.45;;
60908;SDS011;46780;48.128;-1.704;2022-12-24T01:55:24;47.38;;;6.50;;
60908;SDS011;46780;48.128;-1.704;2022-12-24T01:57:52;51.75;;;7.20;;
60908;SDS011;46780;48.128;-1.704;2022-12-24T02:00:21;48.22;;;6.80;;
60908;SDS011;46780;48.128;-1.704;2022-12-24T02:02:51;49.30;;;6.13;;
60908;SDS011;46780;48.128;-1.704;2022-12-24T02:05:20;43.58;;;6.30;;
60908;SDS011;46780;48.128;-1.704;2022-12-24T02:07:51;44.33;;;5.45;;
60908;SDS011;46780;48.128;-1.704;2022-12-24T02:10:18;46.65;;;6.32;;
60908;SDS011;46780;48.128;-1.704;2022-12-24T02:12:46;42.15;;;6.22;;
60908;SDS011;46780;48.128;-1.704;2022-12-24T02:15:14;43.65;;;6.03;;
60908;SDS011;46780;48.128;-1.704;2022-12-24T02:17:46;37.40;;;5.32;;
60908;SDS011;46780;48.128;-1.704;2022-12-24T02:20:26;42.55;;;6.75;;
60908;SDS011;46780;48.128;-1.704;2022-12-24T02:23:10;50.80;;;6.45;;
60908;SDS011;46780;48.128;-1.704;2022-12-24T02:26:02;42.65;;;6.15;;
60908;SDS011;46780;48.128;-1.704;2022-12-24T02:28:50;47.95;;;6.72;;
60908;SDS011;46780;48.128;-1.704;2022-12-24T02:31:39;48.92;;;6.35;;
60908;SDS011;46780;48.128;-1.704;2022-12-24T02:34:11;43.05;;;6.45;;
60908;SDS011;46780;48.128;-1.704;2022-12-24T02:36:41;42.38;;;5.72;;
60908;SDS011;46780;48.128;-1.704;2022-12-24T02:39:14;47.25;;;6.20;;
60908;SDS011;46780;48.128;-1.704;2022-12-24T02:41:47;50.47;;;6.13;;
60908;SDS011;46780;48.128;-1.704;2022-12-24T02:44:18;46.80;;;5.82;;
60908;SDS011;46780;48.128;-1.704;2022-12-24T02:46:48;41.95;;;5.93;;
60908;SDS011;46780;48.128;-1.704;2022-12-24T02:49:15;37.40;;;5.65;;
60908;SDS011;46780;48.128;-1.704;2022-12-24T02:51:42;48.40;;;6.20;;
60908;SDS011;46780;48.128;-1.704;2022-12-24T02:54:10;49.33;;;6.85;;
60908;SDS011;46780;48.128;-1.704;2022-12-24T02:56:50;40.30;;;5.28;;
60908;SDS011;46780;48.128;-1.704;2022-12-24T02:59:38;40.78;;;6.15;;
60908;SDS011;46780;48.128;-1.704;2022-12-24T03:02:25;40.92;;;5.40;;
60908;SDS011;46780;48.128;-1.704;2022-12-24T03:05:12;46.47;;;6.07;;
60908;SDS011;46780;48.128;-1.704;2022-12-24T03:07:49;43.15;;;5.53;;
60908;SDS011;46780;48.128;-1.704;2022-12-24T03:10:23;39.70;;;5.65;;
60908;SDS011;46780;48.128;-1.704;2022-12-24T03:12:56;37.40;;;5.20;;
60908;SDS011;46780;48.128;-1.704;2022-12-24T03:15:27;34.03;;;5.25;;
60908;SDS011;46780;48.128;-1.704;2022-12-24T03:17:58;35.58;;;4.57;;
60908;SDS011;46780;48.128;-1.704;2022-12-24T03:20:29;29.00;;;4.20;;
60908;SDS011;46780;48.128;-1.704;2022-12-24T03:22:59;34.53;;;5.20;;
60908;SDS011;46780;48.128;-1.704;2022-12-24T03:25:26;32.00;;;4.78;;
60908;SDS011;46780;48.128;-1.704;2022-12-24T03:27:53;36.13;;;5.20;;
60908;SDS011;46780;48.128;-1.704;2022-12-24T03:30:21;29.98;;;4.40;;
60908;SDS011;46780;48.128;-1.704;2022-12-24T03:32:48;23.70;;;4.00;;
60908;SDS011;46780;48.128;-1.704;2022-12-24T03:35:16;26.55;;;3.90;;
60908;SDS011;46780;48.128;-1.704;2022-12-24T03:37:42;24.27;;;4.20;;
60908;SDS011;46780;48.128;-1.704;2022-12-24T03:40:09;26.58;;;3.80;;
60908;SDS011;46780;48.128;-1.704;2022-12-24T03:42:36;20.80;;;3.53;;
60908;SDS011;46780;48.128;-1.704;2022-12-24T03:45:03;25.60;;;4.28;;
60908;SDS011;46780;48.128;-1.704;2022-12-24T03:47:30;22.60;;;3.45;;
60908;SDS011;46780;48.128;-1.704;2022-12-24T03:49:56;24.25;;;3.10;;
60908;SDS011;46780;48.128;-1.704;2022-12-24T03:52:24;21.75;;;3.13;;
60908;SDS011;46780;48.128;-1.704;2022-12-24T03:54:51;24.85;;;3.30;;
60908;SDS011;46780;48.128;-1.704;2022-12-24T03:57:17;21.75;;;3.47;;
60908;SDS011;46780;48.128;-1.704;2022-12-24T03:59:44;20.92;;;3.28;;
60908;SDS011;46780;48.128;-1.704;2022-12-24T04:02:10;18.77;;;2.55;;
60908;SDS011;46780;48.128;-1.704;2022-12-24T04:04:37;19.23;;;3.05;;
60908;SDS011;46780;48.128;-1.704;2022-12-24T04:07:03;19.02;;;3.13;;
60908;SDS011;46780;48.128;-1.704;2022-12-24T04:09:31;18.55;;;2.85;;
60908;SDS011;46780;48.128;-1.704;2022-12-24T04:11:58;19.50;;;3.28;;
60908;SDS011;46780;48.128;-1.704;2022-12-24T04:14:24;20.67;;;2.80;;
60908;SDS011;46780;48.128;-1.704;2022-12-24T04:16:51;17.40;;;2.75;;
60908;SDS011;46780;48.128;-1.704;2022-12-24T04:19:17;20.60;;;2.80;;
60908;SDS011;46780;48.128;-1.704;2022-12-24T04:21:44;19.65;;;2.90;;
60908;SDS011;46780;48.128;-1.704;2022-12-24T04:24:10;20.83;;;3.05;;
60908;SDS011;46780;48.128;-1.704;2022-12-24T04:26:38;21.55;;;2.92;;
60908;SDS011;46780;48.128;-1.704;2022-12-24T04:29:05;21.15;;;3.17;;
60908;SDS011;46780;48.128;-1.704;2022-12-24T04:31:31;24.02;;;3.42;;
60908;SDS011;46780;48.128;-1.704;2022-12-24T04:33:58;20.85;;;3.25;;
60908;SDS011;46780;48.128;-1.704;2022-12-24T04:36:24;28.08;;;3.28;;
60908;SDS011;46780;48.128;-1.704;2022-12-24T04:38:51;22.05;;;3.28;;
60908;SDS011;46780;48.128;-1.704;2022-12-24T04:41:18;32.55;;;4.30;;
60908;SDS011;46780;48.128;-1.704;2022-12-24T04:43:48;24.52;;;3.10;;
60908;SDS011;46780;48.128;-1.704;2022-12-24T04:46:15;28.10;;;3.70;;
60908;SDS011;46780;48.128;-1.704;2022-12-24T04:48:43;33.80;;;3.92;;
60908;SDS011;46780;48.128;-1.704;2022-12-24T04:51:11;26.75;;;3.97;;
60908;SDS011;46780;48.128;-1.704;2022-12-24T04:53:39;25.02;;;3.42;;
60908;SDS011;46780;48.128;-1.704;2022-12-24T04:56:06;21.88;;;3.33;;
60908;SDS011;46780;48.128;-1.704;2022-12-24T04:58:36;31.40;;;3.67;;
60908;SDS011;46780;48.128;-1.704;2022-12-24T05:01:04;27.08;;;4.45;;
60908;SDS011;46780;48.128;-1.704;2022-12-24T05:03:31;25.35;;;3.28;;
60908;SDS011;46780;48.128;-1.704;2022-12-24T05:06:01;27.45;;;3.50;;
60908;SDS011;46780;48.128;-1.704;2022-12-24T05:08:28;30.17;;;4.53;;
60908;SDS011;46780;48.128;-1.704;2022-12-24T05:10:54;33.38;;;4.82;;
60908;SDS011;46780;48.128;-1.704;2022-12-24T05:13:21;36.25;;;4.15;;
60908;SDS011;46780;48.128;-1.704;2022-12-24T05:15:48;34.55;;;3.85;;
60908;SDS011;46780;48.128;-1.704;2022-12-24T05:18:16;27.77;;;3.53;;
60908;SDS011;46780;48.128;-1.704;2022-12-24T05:20:43;35.10;;;4.45;;
60908;SDS011;46780;48.128;-1.704;2022-12-24T05:23:10;28.85;;;3.42;;
60908;SDS011;46780;48.128;-1.704;2022-12-24T05:25:41;34.42;;;4.25;;
60908;SDS011;46780;48.128;-1.704;2022-12-24T05:28:07;29.83;;;3.20;;
60908;SDS011;46780;48.128;-1.704;2022-12-24T05:30:34;29.50;;;3.47;;
60908;SDS011;46780;48.128;-1.704;2022-12-24T05:33:00;35.83;;;4.03;;
60908;SDS011;46780;48.128;-1.704;2022-12-24T05:35:28;27.55;;;3.80;;
60908;SDS011;46780;48.128;-1.704;2022-12-24T05:37:56;22.83;;;3.30;;
60908;SDS011;46780;48.128;-1.704;2022-12-24T05:40:22;30.65;;;3.85;;
60908;SDS011;46780;48.128;-1.704;2022-12-24T05:42:49;28.55;;;3.80;;
60908;SDS011;46780;48.128;-1.704;2022-12-24T05:45:16;25.05;;;3.55;;
60908;SDS011;46780;48.128;-1.704;2022-12-24T05:47:42;23.45;;;3.70;;
60908;SDS011;46780;48.128;-1.704;2022-12-24T05:50:09;30.05;;;4.18;;
60908;SDS011;46780;48.128;-1.704;2022-12-24T05:52:37;27.75;;;3.85;;
60908;SDS011;46780;48.128;-1.704;2022-12-24T05:55:04;21.23;;;2.95;;
60908;SDS011;46780;48.128;-1.704;2022-12-24T05:57:31;25.20;;;3.45;;
60908;SDS011;46780;48.128;-1.704;2022-12-24T05:59:58;26.38;;;3.70;;
60908;SDS011;46780;48.128;-1.704;2022-12-24T06:02:24;31.02;;;3.83;;
60908;SDS011;46780;48.128;-1.704;2022-12-24T06:04:51;26.85;;;3.80;;
60908;SDS011;46780;48.128;-1.704;2022-12-24T06:07:17;29.42;;;3.88;;
60908;SDS011;46780;48.128;-1.704;2022-12-24T06:09:45;26.80;;;3.95;;
60908;SDS011;46780;48.128;-1.704;2022-12-24T06:12:11;32.60;;;4.07;;
60908;SDS011;46780;48.128;-1.704;2022-12-24T06:14:38;26.55;;;3.53;;
60908;SDS011;46780;48.128;-1.704;2022-12-24T06:17:04;29.38;;;3.10;;
60908;SDS011;46780;48.128;-1.704;2022-12-24T06:19:31;25.00;;;3.30;;
60908;SDS011;46780;48.128;-1.704;2022-12-24T06:21:57;26.70;;;3.80;;
60908;SDS011;46780;48.128;-1.704;2022-12-24T06:24:24;22.55;;;2.92;;
60908;SDS011;46780;48.128;-1.704;2022-12-24T06:26:51;30.23;;;3.95;;
60908;SDS011;46780;48.128;-1.704;2022-12-24T06:29:18;34.42;;;4.40;;
60908;SDS011;46780;48.128;-1.704;2022-12-24T06:31:44;24.95;;;3.15;;
60908;SDS011;46780;48.128;-1.704;2022-12-24T06:34:11;23.45;;;3.50;;
60908;SDS011;46780;48.128;-1.704;2022-12-24T06:36:37;26.55;;;3.08;;
60908;SDS011;46780;48.128;-1.704;2022-12-24T06:39:04;24.95;;;3.35;;
60908;SDS011;46780;48.128;-1.704;2022-12-24T06:41:30;24.45;;;4.25;;
60908;SDS011;46780;48.128;-1.704;2022-12-24T06:43:58;22.20;;;3.25;;
60908;SDS011;46780;48.128;-1.704;2022-12-24T06:46:25;26.65;;;3.33;;
60908;SDS011;46780;48.128;-1.704;2022-12-24T06:48:51;28.60;;;3.75;;
60908;SDS011;46780;48.128;-1.704;2022-12-24T06:51:18;27.05;;;3.33;;
60908;SDS011;46780;48.128;-1.704;2022-12-24T06:53:45;23.48;;;3.35;;
60908;SDS011;46780;48.128;-1.704;2022-12-24T06:56:12;22.50;;;2.88;;
60908;SDS011;46780;48.128;-1.704;2022-12-24T06:58:39;27.17;;;3.78;;
60908;SDS011;46780;48.128;-1.704;2022-12-24T07:01:08;32.67;;;3.60;;
60908;SDS011;46780;48.128;-1.704;2022-12-24T07:03:37;30.88;;;3.10;;
60908;SDS011;46780;48.128;-1.704;2022-12-24T07:06:04;26.13;;;3.20;;
60908;SDS011;46780;48.128;-1.704;2022-12-24T07:08:31;24.42;;;3.33;;
60908;SDS011;46780;48.128;-1.704;2022-12-24T07:10:58;26.05;;;3.17;;
60908;SDS011;46780;48.128;-1.704;2022-12-24T07:13:25;24.27;;;3.60;;
60908;SDS011;46780;48.128;-1.704;2022-12-24T07:15:55;24.25;;;3.28;;
60908;SDS011;46780;48.128;-1.704;2022-12-24T07:18:24;25.52;;;3.22;;
60908;SDS011;46780;48.128;-1.704;2022-12-24T07:20:50;26.27;;;3.60;;
60908;SDS011;46780;48.128;-1.704;2022-12-24T07:23:17;30.50;;;3.47;;
60908;SDS011;46780;48.128;-1.704;2022-12-24T07:25:43;27.48;;;3.30;;
60908;SDS011;46780;48.128;-1.704;2022-12-24T07:28:10;25.40;;;3.30;;
60908;SDS011;46780;48.128;-1.704;2022-12-24T07:30:36;22.10;;;3.65;;
60908;SDS011;46780;48.128;-1.704;2022-12-24T07:33:03;27.48;;;3.20;;
60908;SDS011;46780;48.128;-1.704;2022-12-24T07:35:31;24.73;;;3.80;;
60908;SDS011;46780;48.128;-1.704;2022-12-24T07:37:57;27.35;;;3.33;;
60908;SDS011;46780;48.128;-1.704;2022-12-24T07:40:24;23.35;;;3.38;;
60908;SDS011;46780;48.128;-1.704;2022-12-24T07:42:50;25.45;;;3.50;;
60908;SDS011;46780;48.128;-1.704;2022-12-24T07:45:17;27.63;;;3.70;;
60908;SDS011;46780;48.128;-1.704;2022-12-24T07:47:43;21.88;;;3.05;;
60908;SDS011;46780;48.128;-1.704;2022-12-24T07:50:10;24.90;;;3.80;;
60908;SDS011;46780;48.128;-1.704;2022-12-24T07:52:38;25.88;;;3.47;;
60908;SDS011;46780;48.128;-1.704;2022-12-24T07:55:05;27.60;;;3.70;;
60908;SDS011;46780;48.128;-1.704;2022-12-24T07:57:31;25.35;;;3.28;;
60908;SDS011;46780;48.128;-1.704;2022-12-24T07:59:58;24.75;;;3.58;;
60908;SDS011;46780;48.128;-1.704;2022-12-24T08:02:24;23.95;;;3.40;;
60908;SDS011;46780;48.128;-1.704;2022-12-24T08:04:51;27.55;;;3.30;;
60908;SDS011;46780;48.128;-1.704;2022-12-24T08:07:17;22.83;;;3.28;;
60908;SDS011;46780;48.128;-1.704;2022-12-24T08:09:45;21.33;;;3.28;;
60908;SDS011;46780;48.128;-1.704;2022-12-24T08:12:12;25.95;;;3.88;;
60908;SDS011;46780;48.128;-1.704;2022-12-24T08:14:38;22.45;;;3.10;;
60908;SDS011;46780;48.128;-1.704;2022-12-24T08:17:05;26.42;;;3.17;;
60908;SDS011;46780;48.128;-1.704;2022-12-24T08:19:31;18.98;;;3.20;;
60908;SDS011;46780;48.128;-1.704;2022-12-24T08:21:57;21.33;;;3.47;;
60908;SDS011;46780;48.128;-1.704;2022-12-24T08:24:24;22.63;;;2.88;;
60908;SDS011;46780;48.128;-1.704;2022-12-24T08:26:52;22.60;;;3.47;;
60908;SDS011;46780;48.128;-1.704;2022-12-24T08:29:18;23.40;;;3.10;;
60908;SDS011;46780;48.128;-1.704;2022-12-24T08:31:45;18.98;;;3.13;;
60908;SDS011;46780;48.128;-1.704;2022-12-24T08:34:11;21.58;;;3.25;;
60908;SDS011;46780;48.128;-1.704;2022-12-24T08:36:38;23.13;;;3.30;;
60908;SDS011;46780;48.128;-1.704;2022-12-24T08:39:04;19.25;;;2.80;;
60908;SDS011;46780;48.128;-1.704;2022-12-24T08:41:31;25.35;;;3.67;;
60908;SDS011;46780;48.128;-1.704;2022-12-24T08:43:59;22.52;;;3.28;;
60908;SDS011;46780;48.128;-1.704;2022-12-24T08:46:25;17.75;;;3.38;;
60908;SDS011;46780;48.128;-1.704;2022-12-24T08:48:52;27.00;;;4.30;;
60908;SDS011;46780;48.128;-1.704;2022-12-24T08:51:18;22.95;;;3.50;;
60908;SDS011;46780;48.128;-1.704;2022-12-24T08:53:45;31.02;;;4.28;;
60908;SDS011;46780;48.128;-1.704;2022-12-24T08:56:11;21.75;;;3.22;;
60908;SDS011;46780;48.128;-1.704;2022-12-24T08:58:38;23.23;;;3.55;;
60908;SDS011;46780;48.128;-1.704;2022-12-24T09:01:10;25.10;;;3.50;;
60908;SDS011;46780;48.128;-1.704;2022-12-24T09:03:37;23.10;;;3.17;;
60908;SDS011;46780;48.128;-1.704;2022-12-24T09:06:04;19.70;;;3.17;;
60908;SDS011;46780;48.128;-1.704;2022-12-24T09:08:32;21.38;;;3.78;;
60908;SDS011;46780;48.128;-1.704;2022-12-24T09:11:01;23.42;;;3.47;;
60908;SDS011;46780;48.128;-1.704;2022-12-24T09:13:29;19.65;;;2.88;;
60908;SDS011;46780;48.128;-1.704;2022-12-24T09:15:55;18.77;;;3.13;;
60908;SDS011;46780;48.128;-1.704;2022-12-24T09:18:24;22.77;;;3.38;;
60908;SDS011;46780;48.128;-1.704;2022-12-24T09:20:50;21.15;;;3.40;;
60908;SDS011;46780;48.128;-1.704;2022-12-24T09:23:17;17.50;;;3.22;;
60908;SDS011;46780;48.128;-1.704;2022-12-24T09:25:43;16.58;;;2.47;;
60908;SDS011;46780;48.128;-1.704;2022-12-24T09:28:10;18.70;;;2.83;;
60908;SDS011;46780;48.128;-1.704;2022-12-24T09:30:36;15.00;;;2.42;;
60908;SDS011;46780;48.128;-1.704;2022-12-24T09:33:03;21.23;;;2.80;;
60908;SDS011;46780;48.128;-1.704;2022-12-24T09:35:31;16.83;;;2.80;;
60908;SDS011;46780;48.128;-1.704;2022-12-24T09:37:57;20.73;;;3.25;;
60908;SDS011;46780;48.128;-1.704;2022-12-24T09:40:24;19.42;;;3.20;;
60908;SDS011;46780;48.128;-1.704;2022-12-24T09:42:57;20.77;;;3.08;;
60908;SDS011;46780;48.128;-1.704;2022-12-24T09:45:27;17.17;;;2.97;;
60908;SDS011;46780;48.128;-1.704;2022-12-24T09:47:56;21.58;;;3.20;;
60908;SDS011;46780;48.128;-1.704;2022-12-24T09:50:29;22.48;;;4.10;;
60908;SDS011;46780;48.128;-1.704;2022-12-24T09:53:04;17.50;;;3.15;;
60908;SDS011;46780;48.128;-1.704;2022-12-24T09:55:42;21.35;;;3.70;;
60908;SDS011;46780;48.128;-1.704;2022-12-24T09:58:14;16.20;;;3.05;;
60908;SDS011;46780;48.128;-1.704;2022-12-24T10:00:44;22.75;;;3.53;;
60908;SDS011;46780;48.128;-1.704;2022-12-24T10:03:12;18.73;;;3.35;;
60908;SDS011;46780;48.128;-1.704;2022-12-24T10:05:43;20.75;;;3.30;;
60908;SDS011;46780;48.128;-1.704;2022-12-24T10:08:16;24.30;;;3.38;;
60908;SDS011;46780;48.128;-1.704;2022-12-24T10:10:52;18.85;;;3.20;;
60908;SDS011;46780;48.128;-1.704;2022-12-24T10:13:23;24.20;;;3.63;;
60908;SDS011;46780;48.128;-1.704;2022-12-24T10:15:59;20.25;;;3.90;;
60908;SDS011;46780;48.128;-1.704;2022-12-24T10:18:33;19.48;;;3.50;;
60908;SDS011;46780;48.128;-1.704;2022-12-24T10:21:11;22.63;;;3.60;;
60908;SDS011;46780;48.128;-1.704;2022-12-24T10:23:41;20.88;;;3.42;;
60908;SDS011;46780;48.128;-1.704;2022-12-24T10:26:14;20.02;;;3.03;;
60908;SDS011;46780;48.128;-1.704;2022-12-24T10:28:49;19.95;;;3.67;;
60908;SDS011;46780;48.128;-1.704;2022-12-24T10:31:18;19.63;;;3.40;;
60908;SDS011;46780;48.128;-1.704;2022-12-24T10:33:49;25.13;;;3.55;;
60908;SDS011;46780;48.128;-1.704;2022-12-24T10:36:24;18.50;;;3.40;;
60908;SDS011;46780;48.128;-1.704;2022-12-24T10:38:52;22.02;;;3.58;;
60908;SDS011;46780;48.128;-1.704;2022-12-24T10:41:19;20.25;;;3.45;;
60908;SDS011;46780;48.128;-1.704;2022-12-24T10:43:46;21.38;;;3.90;;
60908;SDS011;46780;48.128;-1.704;2022-12-24T10:46:16;22.50;;;4.10;;
60908;SDS011;46780;48.128;-1.704;2022-12-24T10:48:47;19.25;;;3.10;;
60908;SDS011;46780;48.128;-1.704;2022-12-24T10:51:19;17.60;;;2.80;;
60908;SDS011;46780;48.128;-1.704;2022-12-24T10:53:54;22.98;;;3.47;;
60908;SDS011;46780;48.128;-1.704;2022-12-24T10:56:25;15.25;;;2.50;;
60908;SDS011;46780;48.128;-1.704;2022-12-24T10:58:52;19.90;;;3.17;;
60908;SDS011;46780;48.128;-1.704;2022-12-24T11:01:19;19.35;;;3.10;;
60908;SDS011;46780;48.128;-1.704;2022-12-24T11:04:06;21.15;;;2.75;;
60908;SDS011;46780;48.128;-1.704;2022-12-24T11:06:44;21.00;;;3.33;;
60908;SDS011;46780;48.128;-1.704;2022-12-24T11:09:19;16.38;;;2.95;;
60908;SDS011;46780;48.128;-1.704;2022-12-24T11:11:47;18.35;;;3.10;;
60908;SDS011;46780;48.128;-1.704;2022-12-24T11:14:15;22.73;;;3.35;;
60908;SDS011;46780;48.128;-1.704;2022-12-24T11:16:47;14.48;;;2.60;;
60908;SDS011;46780;48.128;-1.704;2022-12-24T11:19:16;17.58;;;2.30;;
60908;SDS011;46780;48.128;-1.704;2022-12-24T11:21:46;20.10;;;3.10;;
60908;SDS011;46780;48.128;-1.704;2022-12-24T11:24:19;19.25;;;3.17;;
60908;SDS011;46780;48.128;-1.704;2022-12-24T11:26:50;14.80;;;2.50;;
60908;SDS011;46780;48.128;-1.704;2022-12-24T11:29:18;19.92;;;2.70;;
60908;SDS011;46780;48.128;-1.704;2022-12-24T11:31:46;19.10;;;2.75;;
60908;SDS011;46780;48.128;-1.704;2022-12-24T11:34:20;19.65;;;2.70;;
60908;SDS011;46780;48.128;-1.704;2022-12-24T11:36:50;14.20;;;2.35;;
60908;SDS011;46780;48.128;-1.704;2022-12-24T11:39:20;14.43;;;2.70;;
60908;SDS011;46780;48.128;-1.704;2022-12-24T11:41:47;13.25;;;2.25;;
60908;SDS011;46780;48.128;-1.704;2022-12-24T11:44:14;13.10;;;2.53;;
60908;SDS011;46780;48.128;-1.704;2022-12-24T11:46:47;15.88;;;2.40;;
60908;SDS011;46780;48.128;-1.704;2022-12-24T11:49:15;16.83;;;2.88;;
60908;SDS011;46780;48.128;-1.704;2022-12-24T11:52:10;16.50;;;2.47;;
60908;SDS011;46780;48.128;-1.704;2022-12-24T11:54:47;20.15;;;3.22;;
60908;SDS011;46780;48.128;-1.704;2022-12-24T11:57:39;16.77;;;2.70;;
60908;SDS011;46780;48.128;-1.704;2022-12-24T12:00:12;12.70;;;2.58;;
60908;SDS011;46780;48.128;-1.704;2022-12-24T12:02:40;13.30;;;2.70;;
60908;SDS011;46780;48.128;-1.704;2022-12-24T12:05:08;15.25;;;2.40;;
60908;SDS011;46780;48.128;-1.704;2022-12-24T12:07:39;12.25;;;2.20;;
60908;SDS011;46780;48.128;-1.704;2022-12-24T12:10:10;14.23;;;2.58;;
60908;SDS011;46780;48.128;-1.704;2022-12-24T12:12:44;9.45;;;2.10;;
60908;SDS011;46780;48.128;-1.704;2022-12-24T12:15:13;12.50;;;2.20;;
60908;SDS011;46780;48.128;-1.704;2022-12-24T12:17:43;10.60;;;2.35;;
60908;SDS011;46780;48.128;-1.704;2022-12-24T12:20:15;12.73;;;2.33;;
60908;SDS011;46780;48.128;-1.704;2022-12-24T12:22:48;11.18;;;1.80;;
60908;SDS011;46780;48.128;-1.704;2022-12-24T12:25:20;13.88;;;2.05;;
60908;SDS011;46780;48.128;-1.704;2022-12-24T12:27:50;15.60;;;2.03;;
60908;SDS011;46780;48.128;-1.704;2022-12-24T12:30:19;13.38;;;2.55;;
60908;SDS011;46780;48.128;-1.704;2022-12-24T12:32:48;12.77;;;2.20;;
60908;SDS011;46780;48.128;-1.704;2022-12-24T12:35:20;12.90;;;2.30;;
60908;SDS011;46780;48.128;-1.704;2022-12-24T12:37:53;13.60;;;2.22;;
60908;SDS011;46780;48.128;-1.704;2022-12-24T12:40:24;12.63;;;2.40;;
60908;SDS011;46780;48.128;-1.704;2022-12-24T12:43:14;15.77;;;2.45;;
60908;SDS011;46780;48.128;-1.704;2022-12-24T12:45:51;15.38;;;2.35;;
60908;SDS011;46780;48.128;-1.704;2022-12-24T12:48:29;13.77;;;2.40;;
60908;SDS011;46780;48.128;-1.704;2022-12-24T12:51:14;12.00;;;2.13;;
60908;SDS011;46780;48.128;-1.704;2022-12-24T12:53:52;13.68;;;2.33;;
60908;SDS011;46780;48.128;-1.704;2022-12-24T12:56:29;14.60;;;2.47;;
60908;SDS011;46780;48.128;-1.704;2022-12-24T12:58:58;13.15;;;2.15;;
60908;SDS011;46780;48.128;-1.704;2022-12-24T13:01:32;11.20;;;1.98;;
60908;SDS011;46780;48.128;-1.704;2022-12-24T13:04:27;12.27;;;2.03;;
60908;SDS011;46780;48.128;-1.704;2022-12-24T13:13:31;10.23;;;2.15;;
60908;SDS011;46780;48.128;-1.704;2022-12-24T13:16:18;9.13;;;1.88;;
60908;SDS011;46780;48.128;-1.704;2022-12-24T13:19:09;13.77;;;2.33;;
60908;SDS011;46780;48.128;-1.704;2022-12-24T13:21:47;9.00;;;1.90;;
60908;SDS011;46780;48.128;-1.704;2022-12-24T13:24:15;9.80;;;2.10;;
60908;SDS011;46780;48.128;-1.704;2022-12-24T13:29:42;13.43;;;2.20;;
60908;SDS011;46780;48.128;-1.704;2022-12-24T13:35:28;10.50;;;2.13;;
60908;SDS011;46780;48.128;-1.704;2022-12-24T13:41:36;6.80;;;1.67;;
60908;SDS011;46780;48.128;-1.704;2022-12-24T13:44:25;11.90;;;1.90;;
60908;SDS011;46780;48.128;-1.704;2022-12-24T13:46:57;11.05;;;1.80;;
60908;SDS011;46780;48.128;-1.704;2022-12-24T13:49:29;8.63;;;1.75;;
60908;SDS011;46780;48.128;-1.704;2022-12-24T13:52:13;10.55;;;1.80;;
60908;SDS011;46780;48.128;-1.704;2022-12-24T13:54:58;7.40;;;1.45;;
60908;SDS011;46780;48.128;-1.704;2022-12-24T13:57:38;5.38;;;1.27;;
60908;SDS011;46780;48.128;-1.704;2022-12-24T14:00:27;8.05;;;1.55;;
60908;SDS011;46780;48.128;-1.704;2022-12-24T14:03:17;7.53;;;1.70;;
60908;SDS011;46780;48.128;-1.704;2022-12-24T14:05:49;7.00;;;1.90;;
60908;SDS011;46780;48.128;-1.704;2022-12-24T14:08:24;12.20;;;1.95;;
60908;SDS011;46780;48.128;-1.704;2022-12-24T14:11:00;9.37;;;2.00;;
60908;SDS011;46780;48.128;-1.704;2022-12-24T14:16:20;11.57;;;1.63;;
60908;SDS011;46780;48.128;-1.704;2022-12-24T14:18:57;5.68;;;1.60;;
60908;SDS011;46780;48.128;-1.704;2022-12-24T14:21:25;9.27;;;1.70;;
60908;SDS011;46780;48.128;-1.704;2022-12-24T14:23:58;9.00;;;1.80;;
60908;SDS011;46780;48.128;-1.704;2022-12-24T14:28:57;7.13;;;1.77;;
60908;SDS011;46780;48.128;-1.704;2022-12-24T14:31:28;7.88;;;1.70;;
60908;SDS011;46780;48.128;-1.704;2022-12-24T14:34:05;9.88;;;1.60;;
60908;SDS011;46780;48.128;-1.704;2022-12-24T14:36:32;7.05;;;1.30;;
60908;SDS011;46780;48.128;-1.704;2022-12-24T14:39:00;8.57;;;2.05;;
60908;SDS011;46780;48.128;-1.704;2022-12-24T14:41:29;10.85;;;2.00;;
60908;SDS011;46780;48.128;-1.704;2022-12-24T14:44:07;11.98;;;2.20;;
60908;SDS011;46780;48.128;-1.704;2022-12-24T14:46:42;10.30;;;1.95;;
60908;SDS011;46780;48.128;-1.704;2022-12-24T14:49:17;11.40;;;2.10;;
60908;SDS011;46780;48.128;-1.704;2022-12-24T14:51:56;8.27;;;1.90;;
60908;SDS011;46780;48.128;-1.704;2022-12-24T14:54:32;10.20;;;2.05;;
60908;SDS011;46780;48.128;-1.704;2022-12-24T14:57:11;8.77;;;1.80;;
60908;SDS011;46780;48.128;-1.704;2022-12-24T14:59:41;10.20;;;1.80;;
60908;SDS011;46780;48.128;-1.704;2022-12-24T15:02:28;7.93;;;1.70;;
60908;SDS011;46780;48.128;-1.704;2022-12-24T15:05:13;6.88;;;1.63;;